createdAt,value
2024-01-22T00:02:46.845Z,100138.20
2024-01-22T00:05:44.638Z,100133.60
2024-01-22T00:08:42.193Z,100129.20
2024-01-22T00:11:39.854Z,100124.20
2024-01-22T00:14:37.650Z,100127.60
2024-01-22T00:17:35.484Z,100124.00
2024-01-22T00:20:33.133Z,100121.40
2024-01-22T00:23:30.929Z,100120.00
2024-01-22T00:26:28.332Z,100119.20
2024-01-22T00:29:26.071Z,100108.20
2024-01-22T00:32:23.496Z,100106.00
2024-01-22T00:35:21.901Z,100112.00
2024-01-22T00:38:19.658Z,100108.60
2024-01-22T00:41:17.087Z,100106.40
2024-01-22T00:44:14.781Z,100107.60
2024-01-22T00:47:12.192Z,100098.80
2024-01-22T00:50:09.916Z,100098.80
2024-01-22T00:53:07.301Z,100093.20
2024-01-22T00:56:08.230Z,100087.40
2024-01-22T00:59:07.746Z,100086.20
2024-01-22T01:02:05.384Z,100087.80
2024-01-22T01:05:03.102Z,100083.80
2024-01-22T01:08:00.599Z,100075.80
2024-01-22T01:10:58.484Z,100087.60
2024-01-22T01:13:55.870Z,100091.40
2024-01-22T01:16:53.505Z,100089.60
2024-01-22T01:19:51.231Z,100083.60
2024-01-22T01:22:48.930Z,100077.80
2024-01-22T01:25:46.503Z,100081.40
2024-01-22T01:28:43.914Z,100072.00
2024-01-22T01:31:41.602Z,100066.40
2024-01-22T01:34:39.070Z,100059.40
2024-01-22T01:37:37.265Z,100059.40
2024-01-22T01:40:34.914Z,100055.60
2024-01-22T01:43:32.287Z,100049.20
2024-01-22T01:46:29.944Z,100042.00
2024-01-22T01:49:27.526Z,100034.00
2024-01-22T01:52:25.283Z,100030.60
2024-01-22T01:55:23.056Z,100020.40
2024-01-22T01:58:20.683Z,100020.60
2024-01-22T02:01:18.460Z,100010.20
2024-01-22T02:04:16.022Z,100011.80
2024-01-22T02:07:13.621Z,100005.40
2024-01-22T02:10:11.367Z,100007.60
2024-01-22T02:13:10.490Z,100004.60
2024-01-22T02:16:08.094Z,100000.60
2024-01-22T02:19:05.624Z,100003.80
2024-01-22T02:22:03.461Z,100002.40
2024-01-22T02:25:01.583Z,100001.20
2024-01-22T02:27:58.973Z,100001.20
2024-01-22T02:30:56.657Z,99999.60
2024-01-22T02:33:54.153Z,99995.00
2024-01-22T02:36:51.903Z,100000.00
2024-01-22T02:39:49.667Z,99996.40
2024-01-22T02:42:47.049Z,100001.40
2024-01-22T02:45:45.494Z,99999.80
2024-01-22T02:48:43.399Z,99992.60
2024-01-22T02:51:41.197Z,99990.60
2024-01-22T02:54:38.575Z,99976.60
2024-01-22T02:57:36.245Z,99966.60
2024-01-22T03:00:33.657Z,99961.40
2024-01-22T03:03:31.541Z,99950.40
2024-01-22T03:06:29.087Z,99947.00
2024-01-22T03:09:27.348Z,99947.80
2024-01-22T03:12:24.764Z,99952.20
2024-01-22T03:15:22.507Z,99953.00
2024-01-22T03:18:20.054Z,99952.40
2024-01-22T03:21:17.924Z,99947.60
2024-01-22T03:24:15.589Z,99942.80
2024-01-22T03:27:13.336Z,99937.60
2024-01-22T03:30:10.813Z,99937.00
2024-01-22T03:33:09.012Z,99922.20
2024-01-22T03:36:06.706Z,99926.60
2024-01-22T03:39:04.423Z,99922.20
2024-01-22T03:42:02.294Z,99912.60
2024-01-22T03:45:00.005Z,99915.40
2024-01-22T03:47:57.916Z,99911.60
2024-01-22T03:50:55.475Z,99904.80
2024-01-22T03:53:53.237Z,99899.80
2024-01-22T03:56:51.314Z,99892.40
2024-01-22T03:59:50.284Z,99893.60
2024-01-22T04:02:47.904Z,99890.20
2024-01-22T04:05:45.696Z,99891.20
2024-01-22T04:08:43.116Z,99897.80
2024-01-22T04:11:41.086Z,99890.20
2024-01-22T04:14:38.658Z,99888.40
2024-01-22T04:17:36.569Z,99884.40
2024-01-22T04:20:34.269Z,99879.20
2024-01-22T04:23:31.939Z,99886.00
2024-01-22T04:26:29.588Z,99873.60
2024-01-22T04:29:26.987Z,99872.20
2024-01-22T04:32:24.726Z,99875.20
2024-01-22T04:35:22.407Z,99871.40
2024-01-22T04:38:20.150Z,99871.60
2024-01-22T04:41:17.531Z,99870.40
2024-01-22T04:44:15.290Z,99874.00
2024-01-22T04:47:12.657Z,99873.80
2024-01-22T04:50:10.507Z,99873.20
2024-01-22T04:53:07.903Z,99875.80
2024-01-22T04:56:05.630Z,99878.00
2024-01-22T04:59:02.997Z,99876.40
2024-01-22T05:02:00.660Z,99873.80
2024-01-22T05:04:58.562Z,99867.40
2024-01-22T05:07:56.286Z,99868.00
2024-01-22T05:10:53.961Z,99866.40
2024-01-22T05:13:51.441Z,99870.80
2024-01-22T05:16:49.988Z,99871.00
2024-01-22T05:19:47.656Z,99871.40
2024-01-22T05:22:45.849Z,99864.80
2024-01-22T05:25:43.716Z,99871.00
2024-01-22T05:28:41.093Z,99874.60
2024-01-22T05:31:39.013Z,99865.40
2024-01-22T05:34:36.689Z,99872.60
2024-01-22T05:37:34.554Z,99862.80
2024-01-22T05:40:31.932Z,99862.80
2024-01-22T05:43:29.698Z,99860.40
2024-01-22T05:46:27.136Z,99862.80
2024-01-22T05:49:26.407Z,99858.60
2024-01-22T05:52:25.773Z,99857.80
2024-01-22T05:55:24.000Z,99858.80
2024-01-22T05:58:21.513Z,99848.00
2024-01-22T06:01:19.179Z,99848.80
2024-01-22T06:04:16.903Z,99839.00
2024-01-22T06:07:14.832Z,99839.80
2024-01-22T06:10:13.500Z,99834.80
2024-01-22T06:13:11.356Z,99828.80
2024-01-22T06:16:09.270Z,99822.20
2024-01-22T06:19:07.108Z,99827.80
2024-01-22T06:22:05.490Z,99813.20
2024-01-22T06:25:04.917Z,99822.40
2024-01-22T06:28:02.653Z,99819.00
2024-01-22T06:31:00.219Z,99821.20
2024-01-22T06:33:57.763Z,99824.00
2024-01-22T06:36:55.572Z,99826.20
2024-01-22T06:39:53.758Z,99823.60
2024-01-22T06:42:51.553Z,99825.40
2024-01-22T06:45:49.013Z,99828.20
2024-01-22T06:48:47.064Z,99828.60
2024-01-22T06:51:46.283Z,99826.00
2024-01-22T06:54:45.209Z,99825.00
2024-01-22T06:57:42.770Z,99822.20
2024-01-22T07:00:40.818Z,99823.00
2024-01-22T07:03:38.370Z,99808.80
2024-01-22T07:06:36.923Z,99807.40
2024-01-22T07:09:34.417Z,99804.60
2024-01-22T07:12:32.058Z,99796.20
2024-01-22T07:15:30.297Z,99790.40
2024-01-22T07:18:28.156Z,99786.80
2024-01-22T07:21:26.341Z,99786.80
2024-01-22T07:24:24.397Z,99785.20
2024-01-22T07:27:22.215Z,99783.00
2024-01-22T07:30:19.777Z,99785.60
2024-01-22T07:33:17.841Z,99781.80
2024-01-22T07:36:15.395Z,99783.40
2024-01-22T07:39:13.091Z,99786.00
2024-01-22T07:42:11.054Z,99798.20
2024-01-22T07:45:08.703Z,99795.00
2024-01-22T07:48:06.262Z,99786.80
2024-01-22T07:51:04.155Z,99781.60
2024-01-22T07:54:02.619Z,99789.20
2024-01-22T07:57:00.326Z,99782.60
2024-01-22T07:59:58.172Z,99778.60
2024-01-22T08:02:55.863Z,99780.80
2024-01-22T08:05:54.384Z,99782.40
2024-01-22T08:08:51.951Z,99788.80
2024-01-22T08:11:50.276Z,99785.60
2024-01-22T08:14:47.706Z,99777.80
2024-01-22T08:17:48.311Z,99775.20
2024-01-22T08:20:46.488Z,99768.60
2024-01-22T08:23:44.199Z,99773.20
2024-01-22T08:26:41.760Z,99769.40
2024-01-22T08:29:39.551Z,99759.60
2024-01-22T08:32:37.079Z,99750.60
2024-01-22T08:35:35.008Z,99739.80
2024-01-22T08:38:32.461Z,99724.40
2024-01-22T08:41:30.172Z,99713.00
2024-01-22T08:44:27.826Z,99706.00
2024-01-22T08:47:25.255Z,99698.20
2024-01-22T08:50:23.944Z,99693.40
2024-01-22T08:53:21.410Z,99688.40
2024-01-22T08:56:19.218Z,99697.20
2024-01-22T08:59:17.374Z,99692.80
2024-01-22T09:02:15.512Z,99688.80
2024-01-22T09:05:12.944Z,99684.40
2024-01-22T09:08:10.775Z,99679.80
2024-01-22T09:11:08.210Z,99679.60
2024-01-22T09:14:06.122Z,99674.00
2024-01-22T09:17:03.888Z,99667.60
2024-01-22T09:20:01.601Z,99660.20
2024-01-22T09:22:58.999Z,99660.80
2024-01-22T09:25:56.636Z,99656.00
2024-01-22T09:28:55.058Z,99655.60
2024-01-22T09:31:52.541Z,99653.80
2024-01-22T09:34:50.206Z,99651.60
2024-01-22T09:37:47.712Z,99649.20
2024-01-22T09:40:46.056Z,99648.00
2024-01-22T09:43:43.766Z,99639.80
2024-01-22T09:46:41.511Z,99629.80
2024-01-22T09:49:39.268Z,99632.00
2024-01-22T09:52:37.077Z,99632.60
2024-01-22T09:55:34.488Z,99629.40
2024-01-22T09:58:32.224Z,99630.60
2024-01-22T10:01:29.785Z,99629.40
2024-01-22T10:04:28.109Z,99624.20
2024-01-22T10:07:25.838Z,99628.60
2024-01-22T10:10:23.476Z,99626.00
2024-01-22T10:13:20.864Z,99617.60
2024-01-22T10:16:20.634Z,99615.20
2024-01-22T10:19:18.669Z,99606.60
2024-01-22T10:22:16.393Z,99603.60
2024-01-22T10:25:13.782Z,99608.20
2024-01-22T10:28:11.433Z,99601.80
2024-01-22T10:31:12.913Z,99595.80
2024-01-22T10:34:10.735Z,99599.60
2024-01-22T10:37:08.641Z,99600.80
2024-01-22T10:40:09.670Z,99597.20
2024-01-22T10:43:07.325Z,99599.60
2024-01-22T10:46:04.995Z,99598.40
2024-01-22T10:49:02.665Z,99598.20
2024-01-22T10:52:01.877Z,99593.20
2024-01-22T10:54:59.630Z,99590.60
2024-01-22T10:57:57.185Z,99599.40
2024-01-22T11:00:55.314Z,99605.60
2024-01-22T11:03:53.668Z,99610.60
2024-01-22T11:06:52.876Z,99616.80
2024-01-22T11:09:50.355Z,99628.60
2024-01-22T11:12:48.053Z,99629.20
2024-01-22T11:15:47.241Z,99641.20
2024-01-22T11:18:45.744Z,99661.20
2024-01-22T11:21:45.080Z,99664.00
2024-01-22T11:24:42.816Z,99661.40
2024-01-22T11:27:41.180Z,99665.00
2024-01-22T11:30:39.775Z,99666.80
2024-01-22T11:33:37.672Z,99662.80
2024-01-22T11:36:35.570Z,99654.40
2024-01-22T11:39:33.145Z,99649.20
2024-01-22T11:42:30.911Z,99635.00
2024-01-22T11:45:32.849Z,99628.20
2024-01-22T11:48:39.286Z,99626.00
2024-01-22T11:51:37.049Z,99603.40
2024-01-22T11:54:34.776Z,99590.00
2024-01-22T11:57:32.991Z,99596.20
2024-01-22T12:00:31.001Z,99581.60
2024-01-22T12:03:28.901Z,99584.80
2024-01-22T12:06:26.411Z,99568.40
2024-01-22T12:09:25.452Z,99561.00
2024-01-22T12:12:22.923Z,99558.00
2024-01-22T12:15:20.816Z,99545.80
2024-01-22T12:18:18.413Z,99545.40
2024-01-22T12:21:16.296Z,99543.20
2024-01-22T12:24:13.984Z,99531.00
2024-01-22T12:27:11.546Z,99530.20
2024-01-22T12:30:09.899Z,99526.40
2024-01-22T12:33:07.953Z,99525.40
2024-01-22T12:36:06.232Z,99516.20
2024-01-22T12:39:05.092Z,99502.00
2024-01-22T12:42:03.069Z,99501.60
2024-01-22T12:45:01.415Z,99500.00
2024-01-22T12:48:00.032Z,99496.60
2024-01-22T12:50:57.638Z,99500.20
2024-01-22T12:53:55.425Z,99511.00
2024-01-22T12:56:53.344Z,99500.60
2024-01-22T12:59:51.270Z,99492.40
2024-01-22T13:02:49.019Z,99492.60
2024-01-22T13:05:46.812Z,99480.00
2024-01-22T13:08:45.201Z,99482.00
2024-01-22T13:11:45.907Z,99469.60
2024-01-22T13:14:45.003Z,99471.20
2024-01-22T13:17:43.437Z,99469.00
2024-01-22T13:20:41.346Z,99468.60
2024-01-22T13:23:39.513Z,99465.40
2024-01-22T13:26:38.215Z,99467.80
2024-01-22T13:29:37.294Z,99454.00
2024-01-22T13:32:35.097Z,99456.40
2024-01-22T13:35:32.765Z,99456.60
2024-01-22T13:38:34.018Z,99464.80
2024-01-22T13:41:31.779Z,99456.60
2024-01-22T13:44:29.176Z,99445.20
2024-01-22T13:47:36.876Z,99449.60
2024-01-22T13:50:36.030Z,99443.20
2024-01-22T13:53:33.841Z,99435.00
2024-01-22T13:56:31.623Z,99433.40
2024-01-22T13:59:29.052Z,99440.80
2024-01-22T14:02:26.777Z,99438.00
2024-01-22T14:05:25.284Z,99425.80
2024-01-22T14:08:23.965Z,99425.60
2024-01-22T14:11:21.670Z,99403.20
2024-01-22T14:14:23.382Z,99410.60
2024-01-22T14:17:27.059Z,99401.20
2024-01-22T14:20:25.133Z,99396.60
2024-01-22T14:23:22.617Z,99397.60
2024-01-22T14:26:20.257Z,99400.20
2024-01-22T14:29:18.043Z,99401.80
2024-01-22T14:32:15.726Z,99398.40
2024-01-22T14:35:13.231Z,99399.60
2024-01-22T14:38:11.922Z,99399.00
2024-01-22T14:41:12.533Z,99392.40
2024-01-22T14:44:10.270Z,99373.40
2024-01-22T14:47:07.809Z,99355.00
2024-01-22T14:50:05.767Z,99351.20
2024-01-22T14:53:04.997Z,99339.80
2024-01-22T14:56:02.893Z,99355.60
2024-01-22T14:59:00.437Z,99354.00
2024-01-22T15:01:58.304Z,99346.20
2024-01-22T15:04:56.033Z,99349.60
2024-01-22T15:07:54.028Z,99348.00
2024-01-22T15:10:51.713Z,99345.20
2024-01-22T15:13:50.122Z,99350.60
2024-01-22T15:16:49.060Z,99349.20
2024-01-22T15:19:46.967Z,99352.20
2024-01-22T15:22:44.718Z,99336.80
2024-01-22T15:25:43.528Z,99334.20
2024-01-22T15:28:42.368Z,99339.00
2024-01-22T15:31:40.717Z,99339.40
2024-01-22T15:34:38.683Z,99356.80
2024-01-22T15:37:36.515Z,99343.80
2024-01-22T15:40:34.177Z,99347.00
2024-01-22T15:43:31.940Z,99344.20
2024-01-22T15:46:30.650Z,99343.40
2024-01-22T15:49:29.818Z,99336.40
2024-01-22T15:52:27.476Z,99331.00
2024-01-22T15:55:25.165Z,99337.20
2024-01-22T15:58:23.045Z,99327.60
2024-01-22T16:01:23.237Z,99319.80
2024-01-22T16:04:22.942Z,99294.60
2024-01-22T16:07:22.866Z,99326.80
2024-01-22T16:10:21.603Z,99313.40
2024-01-22T16:13:20.066Z,99321.80
2024-01-22T16:16:18.375Z,99286.80
2024-01-22T16:19:19.486Z,99274.80
2024-01-22T16:22:19.827Z,99310.60
2024-01-22T16:25:19.684Z,99286.80
2024-01-22T16:28:17.376Z,99305.60
2024-01-22T16:31:15.363Z,99302.80
2024-01-22T16:34:13.542Z,99299.80
2024-01-22T16:37:11.623Z,99283.00
2024-01-22T16:40:15.791Z,99277.20
2024-01-22T16:43:15.624Z,99271.20
2024-01-22T16:46:13.741Z,99286.20
2024-01-22T16:49:11.661Z,99311.00
2024-01-22T16:52:09.356Z,99310.40
2024-01-22T16:55:09.028Z,99315.60
2024-01-22T16:58:06.699Z,99288.60
2024-01-22T17:01:04.350Z,99276.40
2024-01-22T17:04:01.796Z,99261.40
2024-01-22T17:06:59.441Z,99245.00
2024-01-22T17:09:56.788Z,99232.80
2024-01-22T17:12:55.034Z,99208.00
2024-01-22T17:15:52.841Z,99211.60
2024-01-22T17:18:50.741Z,99224.80
2024-01-22T17:21:50.323Z,99234.80
2024-01-22T17:24:47.841Z,99229.80
2024-01-22T17:27:45.550Z,99226.60
2024-01-22T17:30:44.606Z,99224.20
2024-01-22T17:33:42.693Z,99236.40
2024-01-22T17:36:40.696Z,99240.00
2024-01-22T17:39:39.585Z,99236.40
2024-01-22T17:42:36.989Z,99234.80
2024-01-22T17:45:34.670Z,99239.60
2024-01-22T17:48:32.156Z,99250.60
2024-01-22T17:51:29.892Z,99251.80
2024-01-22T17:54:27.373Z,99256.00
2024-01-22T17:57:25.111Z,99258.20
2024-01-22T18:00:24.646Z,99251.60
2024-01-22T18:03:22.711Z,99243.00
2024-01-22T18:06:20.188Z,99245.60
2024-01-22T18:09:18.083Z,99226.80
2024-01-22T18:12:15.614Z,99227.60
2024-01-22T18:15:13.869Z,99228.60
2024-01-22T18:18:11.500Z,99221.40
2024-01-22T18:21:09.281Z,99226.00
2024-01-22T18:24:08.233Z,99219.80
2024-01-22T18:27:06.098Z,99217.40
2024-01-22T18:30:04.596Z,99220.00
2024-01-22T18:33:02.373Z,99221.20
2024-01-22T18:36:00.287Z,99224.40
2024-01-22T18:38:57.841Z,99222.60
2024-01-22T18:41:55.607Z,99213.00
2024-01-22T18:44:54.118Z,99221.00
2024-01-22T18:47:52.458Z,99219.00
2024-01-22T18:50:51.045Z,99220.40
2024-01-22T18:53:51.009Z,99223.40
2024-01-22T18:56:49.429Z,99219.60
2024-01-22T18:59:47.824Z,99216.60
2024-01-22T19:02:48.244Z,99215.40
2024-01-22T19:05:48.086Z,99217.60
2024-01-22T19:08:48.022Z,99211.80
2024-01-22T19:11:47.362Z,99215.40
2024-01-22T19:14:47.089Z,99212.60
2024-01-22T19:17:47.379Z,99207.20
2024-01-22T19:20:48.031Z,99222.60
2024-01-22T19:23:47.836Z,99222.40
2024-01-22T19:26:45.917Z,99222.40
2024-01-22T19:29:45.429Z,99226.20
2024-01-22T19:32:43.935Z,99233.00
2024-01-22T19:35:43.348Z,99233.40
2024-01-22T19:38:41.271Z,99231.80
2024-01-22T19:41:40.340Z,99234.80
2024-01-22T19:44:38.986Z,99239.40
2024-01-22T19:47:37.799Z,99245.00
2024-01-22T19:50:37.719Z,99252.40
2024-01-22T19:53:37.142Z,99263.60
2024-01-22T19:56:36.264Z,99267.80
2024-01-22T19:59:35.094Z,99281.20
2024-01-22T20:02:34.640Z,99283.00
2024-01-22T20:05:34.783Z,99287.80
2024-01-22T20:08:34.608Z,99309.00
2024-01-22T20:11:32.959Z,99304.00
2024-01-22T20:14:31.477Z,99321.20
2024-01-22T20:17:29.431Z,99315.20
2024-01-22T20:20:28.565Z,99323.00
2024-01-22T20:23:28.313Z,99332.40
2024-01-22T20:26:27.933Z,99342.80
2024-01-22T20:29:27.581Z,99353.60
2024-01-22T20:32:27.351Z,99359.20
2024-01-22T20:35:26.203Z,99372.40
2024-01-22T20:38:25.845Z,99371.60
2024-01-22T20:41:25.264Z,99383.80
2024-01-22T20:44:24.678Z,99395.20
2024-01-22T20:47:23.411Z,99395.80
2024-01-22T20:50:22.326Z,99395.60
2024-01-22T20:53:20.672Z,99392.80
2024-01-22T20:56:20.686Z,99394.40
2024-01-22T20:59:18.269Z,99388.80
2024-01-22T21:02:16.424Z,99387.80
2024-01-22T21:05:13.922Z,99380.80
2024-01-22T21:08:11.693Z,99370.60
2024-01-22T21:11:09.088Z,99377.60
2024-01-22T21:14:07.451Z,99379.20
2024-01-22T21:17:05.178Z,99384.60
2024-01-22T21:20:03.206Z,99373.20
2024-01-22T21:23:00.706Z,99380.20
2024-01-22T21:25:58.435Z,99381.80
2024-01-22T21:28:55.904Z,99384.00
2024-01-22T21:31:53.651Z,99377.60
2024-01-22T21:34:51.206Z,99374.80
2024-01-22T21:37:49.130Z,99374.20
2024-01-22T21:40:46.578Z,99372.40
2024-01-22T21:43:44.350Z,99362.00
2024-01-22T21:46:41.722Z,99372.20
2024-01-22T21:49:39.508Z,99393.80
2024-01-22T21:52:37.269Z,99405.40
2024-01-22T21:55:35.704Z,99399.60
2024-01-22T21:58:33.319Z,99388.00
2024-01-22T22:01:31.274Z,99392.80
2024-01-22T22:04:28.991Z,99403.60
2024-01-22T22:07:26.837Z,99398.20
2024-01-22T22:10:28.016Z,99391.40
2024-01-22T22:13:25.993Z,99383.60
2024-01-22T22:16:23.800Z,99384.40
2024-01-22T22:19:21.946Z,99375.80
2024-01-22T22:22:20.502Z,99366.60
2024-01-22T22:25:18.173Z,99360.20
2024-01-22T22:28:15.631Z,99357.40
2024-01-22T22:31:13.278Z,99348.00
2024-01-22T22:34:10.862Z,99340.80
2024-01-22T22:37:08.595Z,99341.20
2024-01-22T22:40:07.113Z,99339.60
2024-01-22T22:43:04.958Z,99332.40
2024-01-22T22:46:02.367Z,99332.60
2024-01-22T22:49:00.324Z,99324.60
2024-01-22T22:51:58.669Z,99317.60
2024-01-22T22:54:56.372Z,99313.40
2024-01-22T22:57:54.713Z,99312.80
2024-01-22T23:00:52.399Z,99303.20
2024-01-22T23:03:51.357Z,99309.40
2024-01-22T23:06:48.941Z,99308.20
2024-01-22T23:09:46.320Z,99313.20
2024-01-22T23:12:44.081Z,99313.40
2024-01-22T23:15:41.544Z,99318.00
2024-01-22T23:18:39.365Z,99326.60
2024-01-22T23:21:36.876Z,99324.40
2024-01-22T23:24:34.591Z,99327.20
2024-01-22T23:27:32.139Z,99330.80
2024-01-22T23:30:29.974Z,99321.40
2024-01-22T23:33:27.480Z,99324.20
2024-01-22T23:36:29.487Z,99328.20
2024-01-22T23:39:27.069Z,99320.60
2024-01-22T23:42:24.833Z,99316.80
2024-01-22T23:45:22.358Z,99307.80
2024-01-22T23:48:22.577Z,99302.40
2024-01-22T23:51:20.361Z,99290.00
2024-01-22T23:54:18.077Z,99278.80
2024-01-22T23:57:15.832Z,99277.60
